This is the latest recevied weather packets stored in our database for station/object SQ3VAS-10. If no packets are shown the sender has not sent any weather packets the latest 10 day(s).
| Time | Temp. | Humidity | Pressure | Rain* | Wind** | Luminosity | Snow |
|---|---|---|---|---|---|---|---|
| 1778276282 | 8.89° C | 72% | 1022.2 hPa | - | - | - | - |
| 1778275711 | 9.44° C | 71% | 1022.1 hPa | - | - | - | - |
| 1778275139 | 10° C | 70% | 1022 hPa | - | - | - | - |
| 1778274568 | 10° C | 69% | 1022.1 hPa | - | - | - | - |
| 1778273996 | 10.56° C | 68% | 1021.9 hPa | - | - | - | - |
| 1778273424 | 10.56° C | 68% | 1021.9 hPa | - | - | - | - |
| 1778272851 | 10° C | 70% | 1021.9 hPa | - | - | - | - |
| 1778272280 | 10° C | 70% | 1021.9 hPa | - | - | - | - |
| 1778271708 | 10° C | 70% | 1021.8 hPa | - | - | - | - |
| 1778271137 | 10.56° C | 70% | 1021.8 hPa | - | - | - | - |
| 1778270564 | 10.56° C | 69% | 1021.7 hPa | - | - | - | - |
| 1778269993 | 11.11° C | 67% | 1021.7 hPa | - | - | - | - |
| 1778269421 | 11.11° C | 65% | 1021.6 hPa | - | - | - | - |
| 1778268850 | 11.11° C | 66% | 1021.5 hPa | - | - | - | - |
| 1778268278 | 11.67° C | 65% | 1021.3 hPa | - | - | - | - |
| 1778267707 | 12.22° C | 64% | 1021.3 hPa | - | - | - | - |
| 1778267135 | 12.22° C | 64% | 1021.2 hPa | - | - | - | - |
| 1778266564 | 12.78° C | 60% | 1021 hPa | - | - | - | - |
| 1778265991 | 12.78° C | 58% | 1020.9 hPa | - | - | - | - |
| 1778265420 | 13.33° C | 57% | 1020.9 hPa | - | - | - | - |
| 1778264848 | 13.33° C | 57% | 1020.8 hPa | - | - | - | - |
| 1778264277 | 13.89° C | 56% | 1020.6 hPa | - | - | - | - |
| 1778263706 | 14.44° C | 56% | 1020.5 hPa | - | - | - | - |
| 1778263134 | 14.44° C | 55% | 1020.4 hPa | - | - | - | - |
| 1778262563 | 15.56° C | 52% | 1020.3 hPa | - | - | - | - |
* Rain since midnight (hover to see other rain measurements)
** Current wind speed in m/s (hover to see current wind gust speed)